Downstream station:
SHEF ID: BSGM7 Big Sugar Creek near Powell, MO
STATION TYPE:
PRECIP STAGE RIV-FLOW BAT-LOAD
in ft cfs volt
Ccp-Rev Ccp-Rev Ccp-Rev Ccp-Rev
(US/Central)
04/01 00:00 0.00 6.79 464 12.65
04/01 01:00 0.00 6.77 457 12.65
04/01 02:00 0.00 6.73 444 12.60
04/01 03:00 0.00 6.71 438 12.60
04/01 04:00 0.00 6.69 431 12.60
04/01 05:00 0.00 6.67 425 12.54
04/01 06:00 0.00 6.64 416 12.54
04/01 07:00 0.00 6.62 410 12.54
04/01 08:00 0.00 6.59 400 12.54
04/01 09:00 0.00 6.57 394 14.24
04/01 10:00 0.00 6.57 394 14.76
04/01 11:00 0.00 6.54 385 14.65
04/01 12:00 0.00 6.52 379 14.06
04/01 13:00 0.00 6.49 371 14.00
04/01 14:00 0.00 6.47 365 13.94
04/01 15:00 0.00 6.46 362 13.83
04/01 16:00 0.00 6.43 353 13.77
04/01 17:00 0.00 6.42 350 13.12
04/01 18:00 0.00 6.41 348 13.00
04/01 19:00 0.00 6.39 342 12.89
04/01 20:00 0.00 6.37 337 12.77
04/01 21:00 0.00 6.36 334 12.77
04/01 22:00 0.00 6.35 331 12.71
04/01 23:00 0.00 6.33 326 12.71